PWSweather.com
Personal Weather Stations
Station Observations
KFLPOINC2
Poinciana Kissimmee, Poinciana, FL 34758

Poinciana KissimmeePoinciana, FL 34758

Lat: 28.161417, Lon: -81.477557

Elevation: 88

Station Type: Ambient Weather WS 2080

Latest ConditionsUpdated 2:50:00 AM EDT Friday, Mar 27, 2015
Currently Today's Max Today's Min Today's Average
Temperature 70.3°F21.3°C 70.3°F21.3°C 69.6°F20.9°C 70.0°F21.1°C
Dew Point 65.6°F18.7°C 66.1°F18.9°C 65.1°F18.4°C 65.7°F18.7°C
Winds 3.2 mph SSW5.1 kmh SSW 4.3 mph SE6.9 kmh SE - 2.7 mph 4.3 kmh
Wind Gusts 4.5 mph7.2 kmh 5.4 mph8.7 kmh - -
Humidity 85% 88% 84% 86%
Pressure 30.16 in1021.3 mb 30.16 in1021.3 mb 30.16 in1021.3 mb -
Hour Temp Dew Point Humidity Winds Wind Gusts Pressure Precip Precip Rate Daily Precip Total
02:50 AM 70.3°F21.3°C 65.6°F18.7°C 85% 3.2 mph SSW5.1 kmh SSW 4.5 mph7.2 kmh 30.16 in1021.3 mb 0.00 in0.0 mm 0.00 in0.0 mm 0.00 in0.0 mm
02:45 AM 70.3°F21.3°C 65.6°F18.7°C 85% 3.4 mph S5.5 kmh S 4.5 mph7.2 kmh 30.16 in1021.3 mb 0.00 in0.0 mm 0.00 in0.0 mm 0.00 in0.0 mm
02:40 AM 70.3°F21.3°C 65.6°F18.7°C 85% 3.1 mph S5.0 kmh S 3.8 mph6.1 kmh 30.16 in1021.3 mb 0.00 in0.0 mm 0.00 in0.0 mm 0.00 in0.0 mm
02:35 AM 70.3°F21.3°C 65.6°F18.7°C 85% 3.2 mph S5.1 kmh S 4.5 mph7.2 kmh 30.16 in1021.3 mb 0.00 in0.0 mm 0.00 in0.0 mm 0.00 in0.0 mm
02:30 AM 70.3°F21.3°C 65.6°F18.7°C 85% 3.3 mph SSW5.3 kmh SSW 4.5 mph7.2 kmh 30.16 in1021.3 mb 0.00 in0.0 mm 0.00 in0.0 mm 0.00 in0.0 mm
02:25 AM 70.3°F21.3°C 65.6°F18.7°C 85% 3.4 mph S5.5 kmh S 5.4 mph8.7 kmh 30.16 in1021.3 mb 0.00 in0.0 mm 0.00 in0.0 mm 0.00 in0.0 mm
02:20 AM 70.2°F21.2°C 65.5°F18.6°C 85% 3.6 mph S5.8 kmh S 5.4 mph8.7 kmh 30.16 in1021.3 mb 0.00 in0.0 mm 0.00 in0.0 mm 0.00 in0.0 mm
02:15 AM 70.0°F21.1°C 65.6°F18.7°C 86% 3.6 mph S5.8 kmh S 3.8 mph6.1 kmh 30.16 in1021.3 mb 0.00 in0.0 mm 0.00 in0.0 mm 0.00 in0.0 mm
02:10 AM 69.8°F21.0°C 65.5°F18.6°C 86% 3.4 mph S5.5 kmh S 3.8 mph6.1 kmh 30.16 in1021.3 mb 0.00 in0.0 mm 0.00 in0.0 mm 0.00 in0.0 mm
02:05 AM 69.8°F21.0°C 65.5°F18.6°C 86% 2.9 mph S4.7 kmh S 3.8 mph6.1 kmh 30.16 in1021.3 mb 0.00 in0.0 mm 0.00 in0.0 mm 0.00 in0.0 mm
02:00 AM 69.8°F21.0°C 65.1°F18.4°C 85% 2.6 mph SSW4.2 kmh SSW 3.8 mph6.1 kmh 30.16 in1021.3 mb 0.00 in0.0 mm 0.00 in0.0 mm 0.00 in0.0 mm
01:55 AM 70.0°F21.1°C 65.3°F18.5°C 85% 2.5 mph SW4.0 kmh SW 3.1 mph5.0 kmh 30.16 in1021.3 mb 0.00 in0.0 mm 0.00 in0.0 mm 0.00 in0.0 mm
01:50 AM 70.2°F21.2°C 65.5°F18.6°C 85% 2.8 mph SW4.5 kmh SW 3.8 mph6.1 kmh 30.16 in1021.3 mb 0.00 in0.0 mm 0.00 in0.0 mm 0.00 in0.0 mm
01:45 AM 70.3°F21.3°C 65.6°F18.7°C 85% 3.0 mph SW4.8 kmh SW 3.8 mph6.1 kmh 30.16 in1021.3 mb 0.00 in0.0 mm 0.00 in0.0 mm 0.00 in0.0 mm
01:40 AM 70.3°F21.3°C 65.3°F18.5°C 84% 3.0 mph SSW4.8 kmh SSW 3.8 mph6.1 kmh 30.16 in1021.3 mb 0.00 in0.0 mm 0.00 in0.0 mm 0.00 in0.0 mm
01:35 AM 70.3°F21.3°C 65.3°F18.5°C 84% 3.0 mph SSW4.8 kmh SSW 3.8 mph6.1 kmh 30.16 in1021.3 mb 0.00 in0.0 mm 0.00 in0.0 mm 0.00 in0.0 mm
01:30 AM 70.3°F21.3°C 65.6°F18.7°C 85% 3.1 mph S5.0 kmh S 4.5 mph7.2 kmh 30.16 in1021.3 mb 0.00 in0.0 mm 0.00 in0.0 mm 0.00 in0.0 mm
01:25 AM 70.3°F21.3°C 65.6°F18.7°C 85% 3.5 mph SSE5.6 kmh SSE 4.5 mph7.2 kmh 30.16 in1021.3 mb 0.00 in0.0 mm 0.00 in0.0 mm 0.00 in0.0 mm
01:20 AM 70.3°F21.3°C 66.0°F18.9°C 86% 3.6 mph SSE5.8 kmh SSE 3.8 mph6.1 kmh 30.16 in1021.3 mb 0.00 in0.0 mm 0.00 in0.0 mm 0.00 in0.0 mm
01:15 AM 70.2°F21.2°C 65.8°F18.8°C 86% 3.3 mph SSE5.3 kmh SSE 3.8 mph6.1 kmh 30.16 in1021.3 mb 0.00 in0.0 mm 0.00 in0.0 mm 0.00 in0.0 mm
01:10 AM 70.2°F21.2°C 65.8°F18.8°C 86% 3.0 mph SSE4.8 kmh SSE 3.8 mph6.1 kmh 30.16 in1021.3 mb 0.00 in0.0 mm 0.00 in0.0 mm 0.00 in0.0 mm
01:05 AM 70.2°F21.2°C 66.1°F18.9°C 87% 3.5 mph SSE5.6 kmh SSE 4.5 mph7.2 kmh 30.16 in1021.3 mb 0.00 in0.0 mm 0.00 in0.0 mm 0.00 in0.0 mm
01:00 AM 70.2°F21.2°C 66.1°F18.9°C 87% 4.3 mph SE6.9 kmh SE 5.4 mph8.7 kmh 30.16 in1021.3 mb 0.00 in0.0 mm 0.00 in0.0 mm 0.00 in0.0 mm
12:55 AM 70.0°F21.1°C 66.0°F18.9°C 87% 3.6 mph SE5.8 kmh SE 5.4 mph8.7 kmh 30.16 in1021.3 mb 0.00 in0.0 mm 0.00 in0.0 mm 0.00 in0.0 mm
12:50 AM 69.8°F21.0°C 65.8°F18.8°C 87% 1.3 mph SE2.1 kmh SE 3.8 mph6.1 kmh 30.16 in1021.3 mb 0.00 in0.0 mm 0.00 in0.0 mm 0.00 in0.0 mm
12:45 AM 69.6°F20.9°C 65.9°F18.8°C 88% Calm Calm 0.7 mph1.1 kmh 30.16 in1021.3 mb 0.00 in0.0 mm 0.00 in0.0 mm 0.00 in0.0 mm
12:40 AM 69.6°F20.9°C 65.9°F18.8°C 88% 1.0 mph S1.6 kmh S 3.1 mph5.0 kmh 30.16 in1021.3 mb 0.00 in0.0 mm 0.00 in0.0 mm 0.00 in0.0 mm
12:35 AM 69.8°F21.0°C 65.8°F18.8°C 87% 2.3 mph S3.7 kmh S 3.1 mph5.0 kmh 30.16 in1021.3 mb 0.00 in0.0 mm 0.00 in0.0 mm 0.00 in0.0 mm
12:30 AM 69.8°F21.0°C 65.8°F18.8°C 87% 2.5 mph S4.0 kmh S 3.1 mph5.0 kmh 30.16 in1021.3 mb 0.00 in0.0 mm 0.00 in0.0 mm 0.00 in0.0 mm
12:25 AM 69.6°F20.9°C 65.9°F18.8°C 88% 1.7 mph S2.7 kmh S 3.1 mph5.0 kmh 30.16 in1021.3 mb 0.00 in0.0 mm 0.00 in0.0 mm 0.00 in0.0 mm
12:20 AM 69.6°F20.9°C 65.9°F18.8°C 88% 1.3 mph S2.1 kmh S 2.2 mph3.5 kmh 30.16 in1021.3 mb 0.00 in0.0 mm 0.00 in0.0 mm 0.00 in0.0 mm
12:15 AM 69.6°F20.9°C 65.9°F18.8°C 88% 1.7 mph S2.7 kmh S 2.2 mph3.5 kmh 30.16 in1021.3 mb 0.00 in0.0 mm 0.00 in0.0 mm 0.00 in0.0 mm
12:10 AM 69.6°F20.9°C 65.9°F18.8°C 88% 2.0 mph S3.2 kmh S 2.2 mph3.5 kmh 30.16 in1021.3 mb 0.00 in0.0 mm 0.00 in0.0 mm 0.00 in0.0 mm
12:05 AM 69.6°F20.9°C 65.9°F18.8°C 88% 1.2 mph S1.9 kmh S 2.2 mph3.5 kmh 30.16 in1021.3 mb 0.00 in0.0 mm 0.00 in0.0 mm 0.00 in0.0 mm
12:00 AM 69.6°F20.9°C 65.6°F18.7°C 87% 0.2 mph S0.3 kmh S 1.6 mph2.6 kmh 30.16 in1021.3 mb 0.00 in0.0 mm 0.00 in0.0 mm 0.00 in0.0 mm